Time;durP1;ratioP1;P1;durP2;ratioP2;P2;SDS_P1;SDS_P2;PMS_P1;PMS_P2;Temp;Humidity;BMP_temperature;BMP_pressure;BME280_temperature;BME280_humidity;BME280_pressure;Samples;Min_cycle;Max_cycle;Signal;HPM_P1;HPM_P2
2023/10/10 00:02:39;;;;;;;13.15;5.78;;;15.20;99.90;;;;;;4919300;29;20142;-87
2023/10/10 00:05:36;;;;;;;13.85;5.40;;;15.20;99.90;;;;;;4918485;29;20135;-87
2023/10/10 00:08:05;;;;;;;11.93;5.45;;;15.20;99.90;;;;;;4917187;29;20047;-87
2023/10/10 00:11:20;;;;;;;15.02;6.07;;;15.20;99.90;;;;;;4935793;29;20058;-87
2023/10/10 00:14:05;;;;;;;15.93;5.70;;;14.80;99.90;;;;;;4917233;29;20186;-87
2023/10/10 00:16:54;;;;;;;15.15;6.00;;;14.70;99.90;;;;;;4919001;29;20043;-87
2023/10/10 00:21:50;;;;;;;14.90;6.47;;;15.20;99.90;;;;;;4917595;29;20047;-87
2023/10/10 00:24:20;;;;;;;12.70;5.72;;;15.20;99.90;;;;;;4915630;29;20063;-88
2023/10/10 00:26:47;;;;;;;14.77;6.85;;;15.20;99.90;;;;;;4919569;29;20153;-87
2023/10/10 00:29:13;;;;;;;13.95;6.78;;;15.20;99.90;;;;;;4918958;29;20488;-88
2023/10/10 00:31:43;;;;;;;14.45;6.43;;;15.20;99.90;;;;;;4918928;29;20058;-87
2023/10/10 00:34:09;;;;;;;15.68;7.57;;;15.20;99.90;;;;;;4918927;29;20087;-88
2023/10/10 00:36:36;;;;;;;18.33;7.65;;;15.20;99.90;;;;;;4919924;29;20058;-88
2023/10/10 00:44:26;;;;;;;17.92;8.50;;;15.20;99.90;;;;;;4899729;29;20111;-89
2023/10/10 00:47:13;;;;;;;19.77;8.27;;;15.10;99.90;;;;;;4899724;29;20044;-87
2023/10/10 00:49:45;;;;;;;19.75;8.38;;;14.90;99.90;;;;;;4898897;29;20056;-88
2023/10/10 00:52:15;;;;;;;21.50;8.63;;;15.20;99.90;;;;;;4899545;29;20074;-87
2023/10/10 00:54:44;;;;;;;19.90;9.55;;;15.20;99.90;;;;;;4899782;29;20058;-88
2023/10/10 00:57:16;;;;;;;19.80;9.25;;;15.20;99.90;;;;;;4898918;29;20386;-88
2023/10/10 00:59:46;;;;;;;25.33;17.10;;;15.20;99.90;;;;;;4899378;29;20048;-87
2023/10/10 01:02:14;;;;;;;18.88;9.43;;;15.20;99.90;;;;;;4899146;29;20083;-87
2023/10/10 01:04:57;;;;;;;16.40;9.05;;;15.20;99.90;;;;;;4899065;29;20056;-87
2023/10/10 01:07:25;;;;;;;26.23;14.10;;;15.20;99.90;;;;;;4899375;29;20159;-88
2023/10/10 01:10:11;;;;;;;18.80;9.50;;;15.20;99.90;;;;;;4880496;29;20417;-88
2023/10/10 01:12:46;;;;;;;20.83;10.75;;;15.20;99.90;;;;;;4877377;29;20149;-87
2023/10/10 01:15:26;;;;;;;21.63;10.50;;;15.20;99.90;;;;;;4877666;29;20064;-87
2023/10/10 01:18:00;;;;;;;19.13;10.23;;;15.20;99.90;;;;;;4875814;29;20137;-87
2023/10/10 01:20:45;;;;;;;18.27;9.77;;;15.20;99.90;;;;;;4877882;29;20045;-88
2023/10/10 01:23:14;;;;;;;20.58;10.15;;;15.20;99.90;;;;;;4877561;29;20045;-87
2023/10/10 01:25:52;;;;;;;21.45;11.13;;;15.20;99.90;;;;;;4879808;29;20045;-87
2023/10/10 01:28:33;;;;;;;18.67;10.85;;;15.20;99.90;;;;;;4880815;29;20049;-88
2023/10/10 01:31:09;;;;;;;19.77;9.90;;;15.20;99.90;;;;;;4880656;29;20049;-88
2023/10/10 01:33:52;;;;;;;20.83;12.43;;;15.20;99.90;;;;;;4881115;29;20049;-87
2023/10/10 01:36:22;;;;;;;20.40;10.70;;;15.20;99.90;;;;;;4896778;29;20044;-88
2023/10/10 01:38:59;;;;;;;20.08;11.30;;;15.20;99.90;;;;;;4899222;29;20514;-87
2023/10/10 01:41:48;;;;;;;19.73;10.35;;;15.20;99.90;;;;;;4899660;29;20048;-87
2023/10/10 01:44:36;;;;;;;19.88;10.07;;;15.30;99.90;;;;;;4898997;29;20117;-87
2023/10/10 01:47:03;;;;;;;60.50;39.25;;;15.10;99.90;;;;;;4899196;29;20084;-87
2023/10/10 01:49:35;;;;;;;20.85;9.88;;;15.30;99.90;;;;;;4899752;29;20052;-87
2023/10/10 01:55:50;;;;;;;21.50;9.85;;;15.20;99.90;;;;;;4859940;29;20124;-87
2023/10/10 01:58:25;;;;;;;27.70;13.75;;;15.20;99.90;;;;;;4863553;29;20510;-87
2023/10/10 02:01:16;;;;;;;20.90;10.15;;;15.20;99.90;;;;;;4839291;29;20098;-87
2023/10/10 02:03:42;;;;;;;30.60;20.13;;;15.20;99.90;;;;;;4842988;29;20046;-87
2023/10/10 02:06:27;;;;;;;22.35;10.77;;;15.20;99.90;;;;;;4847012;29;20061;-88
2023/10/10 02:09:10;;;;;;;16.13;8.77;;;15.20;99.90;;;;;;4887988;29;20501;-87
2023/10/10 02:11:36;;;;;;;25.25;14.93;;;15.20;99.90;;;;;;4900683;29;20060;-87
2023/10/10 02:14:02;;;;;;;18.13;8.93;;;15.30;99.90;;;;;;4898359;29;20452;-87
2023/10/10 02:16:35;;;;;;;33.20;19.17;;;15.20;99.90;;;;;;4898949;29;20066;-87
2023/10/10 02:19:25;;;;;;;16.52;8.70;;;15.30;99.90;;;;;;4898768;29;20052;-87
2023/10/10 02:22:33;;;;;;;16.67;8.48;;;15.70;99.90;;;;;;4898566;29;20052;-87
2023/10/10 02:28:19;;;;;;;18.67;8.15;;;15.30;99.90;;;;;;4917107;29;20075;-87
2023/10/10 02:31:06;;;;;;;22.67;11.07;;;15.20;99.90;;;;;;4917197;29;20452;-87
2023/10/10 02:33:48;;;;;;;17.52;8.27;;;15.20;99.90;;;;;;4917496;29;20500;-87
2023/10/10 02:36:16;;;;;;;20.42;8.25;;;15.20;99.90;;;;;;4916560;29;20075;-88
2023/10/10 02:38:54;;;;;;;25.85;16.92;;;15.30;99.90;;;;;;4917989;29;20040;-88
2023/10/10 02:44:25;;;;;;;16.67;7.65;;;15.30;99.90;;;;;;4917493;29;20159;-87
2023/10/10 02:46:42;;;;;;;18.60;9.93;;;15.30;99.90;;;;;;4916409;29;20048;-87
2023/10/10 02:49:23;;;;;;;21.13;9.65;;;15.20;99.90;;;;;;4916356;29;20113;-87
2023/10/10 02:51:51;;;;;;;14.05;7.70;;;15.30;99.90;;;;;;4917789;29;20044;-87
2023/10/10 02:56:51;;;;;;;18.45;7.53;;;15.30;99.90;;;;;;4916648;29;20067;-88
2023/10/10 02:59:22;;;;;;;22.58;11.23;;;15.30;99.90;;;;;;4916720;29;20048;-87
2023/10/10 03:01:57;;;;;;;19.60;9.77;;;15.30;99.90;;;;;;4916668;29;20123;-88
2023/10/10 03:05:16;;;;;;;16.00;7.28;;;15.30;99.90;;;;;;4916542;29;20059;-88
2023/10/10 03:07:19;;;;;;;16.63;7.43;;;15.30;99.90;;;;;;4913398;29;20044;-87
2023/10/10 03:12:37;;;;;;;17.92;9.27;;;15.20;99.90;;;;;;4897881;29;20135;-88
2023/10/10 03:23:54;;;;;;;15.20;7.72;;;15.10;99.90;;;;;;4897610;29;20060;-87
2023/10/10 03:29:11;;;;;;;15.95;7.32;;;15.10;99.90;;;;;;4897782;29;20060;-87
2023/10/10 03:31:47;;;;;;;18.67;7.43;;;15.00;99.90;;;;;;4897062;29;20049;-87
2023/10/10 03:34:29;;;;;;;13.90;7.10;;;15.00;99.90;;;;;;4899313;29;20041;-88
2023/10/10 03:37:20;;;;;;;14.88;7.63;;;15.00;99.90;;;;;;4898277;29;20116;-87
2023/10/10 03:39:57;;;;;;;36.53;17.30;;;14.90;99.90;;;;;;4896934;29;20477;-87
2023/10/10 05:24:27;;;;;;;28.98;15.25;;;14.90;99.90;;;;;;4869228;29;20139;-87
2023/10/10 05:26:56;;;;;;;26.95;14.88;;;14.90;99.90;;;;;;4895946;29;20085;-87
2023/10/10 05:29:24;;;;;;;27.10;14.55;;;14.80;99.90;;;;;;4893645;29;20413;-87
2023/10/10 05:31:51;;;;;;;26.98;14.02;;;14.80;99.90;;;;;;4895769;29;20064;-87
2023/10/10 05:34:22;;;;;;;28.73;14.93;;;14.80;99.90;;;;;;4895419;29;20053;-87
2023/10/10 05:36:48;;;;;;;28.83;15.63;;;14.80;99.90;;;;;;4897442;29;20052;-84
2023/10/10 05:39:21;;;;;;;29.23;15.90;;;14.90;99.90;;;;;;4895840;29;20407;-82
2023/10/10 05:41:54;;;;;;;28.93;14.73;;;14.80;99.90;;;;;;4896742;29;20055;-82
2023/10/10 05:44:21;;;;;;;30.55;15.00;;;14.80;99.90;;;;;;4894492;29;20048;-83
2023/10/10 05:46:47;;;;;;;30.88;15.57;;;14.80;99.90;;;;;;4896048;29;20112;-82
2023/10/10 05:49:13;;;;;;;30.27;14.68;;;14.80;99.90;;;;;;4906235;29;20052;-82
2023/10/10 05:51:40;;;;;;;28.17;14.15;;;14.70;99.90;;;;;;4883114;29;20465;-81
2023/10/10 05:54:08;;;;;;;28.20;14.57;;;14.70;99.90;;;;;;4875794;29;20107;-81
2023/10/10 05:56:35;;;;;;;31.75;15.50;;;14.70;99.90;;;;;;4894121;29;20116;-80
2023/10/10 05:59:02;;;;;;;26.75;14.25;;;14.60;99.90;;;;;;4892337;29;20075;-81
2023/10/10 06:01:30;;;;;;;29.38;14.95;;;14.60;99.90;;;;;;4894034;29;20511;-80
2023/10/10 06:03:56;;;;;;;29.42;15.68;;;14.50;99.90;;;;;;4893774;29;20052;-81
2023/10/10 06:06:22;;;;;;;29.95;14.35;;;14.50;99.90;;;;;;4893117;29;20400;-80
2023/10/10 06:08:58;;;;;;;30.30;15.18;;;14.50;99.90;;;;;;4893745;29;20135;-81
2023/10/10 06:11:24;;;;;;;29.25;16.00;;;14.50;99.90;;;;;;4892330;29;20575;-81
2023/10/10 06:13:49;;;;;;;34.92;15.18;;;14.50;99.90;;;;;;4897530;29;20060;-80
2023/10/10 06:16:15;;;;;;;34.75;16.35;;;14.40;99.90;;;;;;4892449;29;20476;-80
2023/10/10 06:18:42;;;;;;;32.95;17.15;;;14.40;99.90;;;;;;4888731;29;20053;-81
2023/10/10 06:21:08;;;;;;;34.00;16.88;;;14.40;99.90;;;;;;4889322;29;20049;-80
2023/10/10 06:23:35;;;;;;;35.83;17.13;;;14.40;99.90;;;;;;4889393;29;20409;-81
2023/10/10 06:26:01;;;;;;;35.60;17.25;;;14.40;99.90;;;;;;4884935;29;20120;-81
2023/10/10 06:28:29;;;;;;;36.13;17.75;;;14.40;99.90;;;;;;4879007;29;20109;-80
2023/10/10 06:30:55;;;;;;;30.80;16.25;;;14.40;99.90;;;;;;4880778;29;20052;-80
2023/10/10 06:33:30;;;;;;;35.85;17.80;;;14.40;99.90;;;;;;4879442;29;20052;-81
2023/10/10 06:36:32;;;;;;;32.50;18.20;;;14.40;99.90;;;;;;4879662;29;20100;-80
2023/10/10 06:39:18;;;;;;;35.20;16.98;;;14.40;99.90;;;;;;4879555;29;20065;-81
2023/10/10 06:41:48;;;;;;;34.63;17.20;;;14.50;99.90;;;;;;4878911;29;20076;-82
2023/10/10 06:44:14;;;;;;;33.28;17.70;;;14.50;99.90;;;;;;4880869;29;20045;-82
2023/10/10 06:46:41;;;;;;;32.97;17.67;;;14.50;99.90;;;;;;4879612;29;20049;-81
2023/10/10 06:49:07;;;;;;;32.30;17.35;;;14.60;99.90;;;;;;4878918;29;20124;-80
2023/10/10 06:51:39;;;;;;;33.08;17.20;;;14.70;99.90;;;;;;4879707;29;20049;-81
2023/10/10 06:54:09;;;;;;;33.47;17.80;;;14.80;99.90;;;;;;4879889;29;20152;-80
2023/10/10 06:56:45;;;;;;;34.47;17.15;;;14.80;99.90;;;;;;4879055;29;20080;-80
2023/10/10 06:59:25;;;;;;;34.95;17.90;;;14.90;99.90;;;;;;4887470;29;20068;-80
2023/10/10 07:01:50;;;;;;;32.10;17.23;;;15.00;99.90;;;;;;4889000;29;20045;-81
2023/10/10 07:04:18;;;;;;;28.70;16.27;;;15.10;99.90;;;;;;4886171;29;20048;-80
2023/10/10 07:06:45;;;;;;;32.92;17.33;;;15.20;99.90;;;;;;4888503;29;20053;-80
2023/10/10 07:09:27;;;;;;;31.13;17.65;;;15.30;99.90;;;;;;4896330;29;20073;-80
2023/10/10 07:12:02;;;;;;;29.80;16.83;;;15.40;99.90;;;;;;4912982;29;20488;-81
2023/10/10 07:14:28;;;;;;;32.45;18.35;;;15.50;99.90;;;;;;4927890;29;20136;-81
2023/10/10 07:16:59;;;;;;;32.80;17.40;;;15.60;99.90;;;;;;4915446;29;20119;-81
2023/10/10 07:19:30;;;;;;;32.58;17.63;;;15.60;99.90;;;;;;4915847;29;20044;-81
2023/10/10 07:21:59;;;;;;;29.45;17.17;;;15.70;99.90;;;;;;4931746;29;20048;-81
2023/10/10 07:24:28;;;;;;;32.85;17.05;;;15.70;99.90;;;;;;4915387;29;20059;-81
2023/10/10 07:27:10;;;;;;;31.50;17.13;;;15.80;99.90;;;;;;4916359;29;20052;-80
2023/10/10 07:32:17;;;;;;;34.10;17.63;;;15.80;99.90;;;;;;4917132;29;20056;-81
2023/10/10 07:34:49;;;;;;;33.58;18.13;;;15.80;99.90;;;;;;4916417;29;20482;-81
2023/10/10 07:37:16;;;;;;;35.42;19.23;;;15.80;99.90;;;;;;4914945;29;20131;-82
2023/10/10 07:42:30;;;;;;;;;;;15.90;99.90;;;;;;4917461;29;20489;-82
2023/10/10 07:45:13;;;;;;;39.20;23.77;;;15.90;99.90;;;;;;4915737;29;19927;-82
2023/10/10 07:50:49;;;;;;;49.00;26.88;;;16.00;99.90;;;;;;4917407;29;20059;-81
2023/10/10 07:53:17;;;;;;;52.70;28.63;;;16.10;99.90;;;;;;4916010;29;20044;-82
2023/10/10 07:58:27;;;;;;;53.75;28.73;;;16.20;99.90;;;;;;4915379;29;20449;-83
2023/10/10 08:01:03;;;;;;;53.40;30.27;;;16.30;99.90;;;;;;4915858;29;20052;-84
2023/10/10 08:03:31;;;;;;;49.95;29.15;;;16.40;99.90;;;;;;4916121;29;20044;-82
2023/10/10 08:05:57;;;;;;;51.92;29.85;;;16.50;99.90;;;;;;4915371;29;20055;-82
2023/10/10 08:08:25;;;;;;;54.28;30.13;;;16.60;99.90;;;;;;4917776;29;20040;-82
2023/10/10 08:10:51;;;;;;;53.50;30.35;;;16.60;99.90;;;;;;4918307;29;20084;-81
2023/10/10 08:13:18;;;;;;;53.53;31.58;;;16.60;99.90;;;;;;4917701;29;20075;-82
2023/10/10 08:15:51;;;;;;;53.42;30.48;;;16.60;99.90;;;;;;4918271;29;20050;-82
2023/10/10 08:23:30;;;;;;;53.35;31.42;;;16.70;99.90;;;;;;4918463;29;20063;-82
2023/10/10 08:25:56;;;;;;;50.72;30.67;;;16.70;99.90;;;;;;4918540;29;20476;-82
2023/10/10 08:28:23;;;;;;;55.25;31.58;;;16.80;99.90;;;;;;4916489;29;20055;-81
2023/10/10 08:30:50;;;;;;;53.92;32.33;;;16.80;99.90;;;;;;4912448;29;20411;-82
2023/10/10 08:33:15;;;;;;;53.50;33.00;;;16.90;99.90;;;;;;4903218;29;20044;-83
2023/10/10 08:35:42;;;;;;;55.03;32.40;;;16.80;99.90;;;;;;4899748;29;20051;-83
2023/10/10 08:38:13;;;;;;;54.15;33.40;;;16.70;99.90;;;;;;4899717;29;20044;-83
2023/10/10 08:40:44;;;;;;;54.25;32.08;;;16.60;99.90;;;;;;4898645;29;20036;-82
2023/10/10 08:43:10;;;;;;;58.03;33.75;;;16.60;99.90;;;;;;4899593;29;20056;-82
2023/10/10 08:45:43;;;;;;;55.85;32.72;;;16.50;99.90;;;;;;4899847;29;20098;-82
2023/10/10 08:48:13;;;;;;;;;;;16.40;99.90;;;;;;4899031;29;20480;-81
2023/10/10 08:50:40;;;;;;;54.88;32.33;;;16.50;99.90;;;;;;4899372;29;19923;-83
2023/10/10 08:53:13;;;;;;;54.47;32.55;;;16.50;99.90;;;;;;4899600;29;20587;-82
2023/10/10 08:55:42;;;;;;;51.90;31.10;;;16.60;99.90;;;;;;4898589;29;20052;-82
2023/10/10 08:58:08;;;;;;;52.03;30.73;;;16.70;99.90;;;;;;4899114;29;20112;-83
2023/10/10 09:00:35;;;;;;;50.25;31.17;;;16.80;99.90;;;;;;4899247;29;20476;-83
2023/10/10 09:03:00;;;;;;;53.20;31.98;;;16.90;99.90;;;;;;4898900;29;20135;-83
2023/10/10 09:05:29;;;;;;;52.20;31.60;;;17.00;99.90;;;;;;4899071;29;20146;-83
2023/10/10 09:08:05;;;;;;;49.22;31.38;;;17.10;99.90;;;;;;4899560;29;20050;-82
2023/10/10 09:10:39;;;;;;;53.20;31.73;;;17.10;99.90;;;;;;4897494;29;20048;-83
2023/10/10 09:13:14;;;;;;;50.28;30.55;;;17.20;99.90;;;;;;4916172;29;20048;-83
2023/10/10 09:16:13;;;;;;;47.05;30.27;;;17.20;99.90;;;;;;4915272;29;20111;-83
2023/10/10 09:18:38;;;;;;;53.15;30.58;;;17.10;99.90;;;;;;4886613;29;20068;-83
2023/10/10 09:21:18;;;;;;;49.50;31.17;;;17.20;99.90;;;;;;4916350;29;20044;-83
2023/10/10 09:23:52;;;;;;;46.53;30.02;;;17.20;99.90;;;;;;4915834;29;20112;-82
2023/10/10 09:28:58;;;;;;;47.72;30.95;;;17.40;99.90;;;;;;4899233;29;20133;-83
2023/10/10 09:31:30;;;;;;;47.50;29.75;;;17.50;99.90;;;;;;4915156;29;20095;-83
2023/10/10 09:33:56;;;;;;;47.40;29.58;;;17.60;99.90;;;;;;4899129;29;20067;-83
2023/10/10 09:36:27;;;;;;;47.25;29.77;;;17.70;99.90;;;;;;4898369;29;20048;-80
2023/10/10 09:39:12;;;;;;;46.05;29.20;;;17.90;99.90;;;;;;4899335;29;20044;-80
2023/10/10 09:42:00;;;;;;;50.55;29.58;;;17.90;99.90;;;;;;4916127;29;20099;-80
2023/10/10 09:44:53;;;;;;;45.42;28.58;;;18.10;99.90;;;;;;4916908;29;20138;-81
2023/10/10 09:47:13;;;;;;;40.28;27.88;;;18.20;99.90;;;;;;4920477;29;20115;-78
2023/10/10 09:50:27;;;;;;;45.30;29.65;;;18.30;99.90;;;;;;4921449;29;20043;-78
2023/10/10 09:52:50;;;;;;;44.85;28.50;;;18.30;99.90;;;;;;4920301;29;20056;-79
2023/10/10 10:06:05;;;;;;;41.78;27.52;;;18.40;99.90;;;;;;4927490;29;20048;-81
2023/10/10 10:08:44;;;;;;;42.47;27.77;;;18.60;99.90;;;;;;4920777;29;20115;-81
2023/10/10 10:11:17;;;;;;;41.03;27.20;;;18.70;99.90;;;;;;4920860;29;20097;-82
2023/10/10 10:14:17;;;;;;;43.13;27.70;;;18.80;99.90;;;;;;4919958;29;20047;-82
2023/10/10 10:17:12;;;;;;;44.10;27.80;;;18.90;99.90;;;;;;4921563;29;20051;-81
2023/10/10 10:19:47;;;;;;;40.30;27.33;;;19.00;99.90;;;;;;4920077;29;20130;-82
2023/10/10 10:22:29;;;;;;;40.92;27.58;;;19.00;99.90;;;;;;4901737;29;20052;-81
2023/10/10 10:25:32;;;;;;;38.55;26.63;;;19.60;99.90;;;;;;4904178;29;20044;-83
2023/10/10 10:28:14;;;;;;;38.15;26.48;;;19.00;99.90;;;;;;4917516;29;20492;-83
2023/10/10 10:31:17;;;;;;;;;;;;;;;;;;;;;
2023/10/10 10:34:24;;;;;;;38.78;25.70;;;19.10;99.90;;;;;;4906090;29;20047;-83
2023/10/10 10:37:21;;;;;;;40.47;25.90;;;19.10;99.90;;;;;;4937411;29;20122;-83
2023/10/10 10:43:05;;;;;;;39.78;26.15;;;19.20;99.90;;;;;;4936167;29;20558;-79
2023/10/10 10:45:40;;;;;;;38.97;25.45;;;19.30;99.90;;;;;;4936899;29;20135;-80
2023/10/10 10:48:29;;;;;;;38.88;25.67;;;19.40;99.90;;;;;;4920002;29;20048;-82
2023/10/10 10:51:22;;;;;;;36.70;24.38;;;19.50;99.90;;;;;;4937382;29;20051;-83
2023/10/10 10:54:00;;;;;;;37.45;24.60;;;19.60;99.90;;;;;;4919855;29;20079;-83
2023/10/10 10:56:46;;;;;;;38.25;24.25;;;19.80;99.90;;;;;;4919407;29;20074;-83
2023/10/10 10:59:13;;;;;;;35.90;24.58;;;20.00;99.90;;;;;;4919902;29;20047;-83
2023/10/10 11:01:45;;;;;;;35.03;23.33;;;20.00;99.90;;;;;;4920147;29;20067;-83
2023/10/10 11:04:23;;;;;;;34.40;22.35;;;20.20;99.90;;;;;;4920174;29;20035;-83
2023/10/10 11:06:59;;;;;;;33.97;22.42;;;20.40;99.90;;;;;;4920320;29;20095;-82
2023/10/10 11:09:28;;;;;;;33.58;22.33;;;20.40;99.90;;;;;;4919183;29;20056;-82
2023/10/10 11:12:06;;;;;;;30.83;20.77;;;20.60;99.90;;;;;;4934986;29;20050;-82
2023/10/10 11:14:34;;;;;;;33.72;21.58;;;20.70;99.90;;;;;;4918972;29;20499;-83
2023/10/10 11:17:00;;;;;;;27.75;20.55;;;20.80;99.90;;;;;;4918749;29;20102;-83
2023/10/10 11:22:38;;;;;;;32.83;21.40;;;21.00;99.90;;;;;;4934491;29;20159;-82
2023/10/10 11:25:05;;;;;;;34.25;21.25;;;21.10;99.90;;;;;;4925361;29;20055;-82
2023/10/10 11:27:37;;;;;;;31.58;21.35;;;21.20;99.90;;;;;;4911560;29;20411;-82
2023/10/10 11:30:07;;;;;;;33.90;21.45;;;21.20;99.90;;;;;;4899682;29;20128;-82
2023/10/10 11:32:47;;;;;;;34.20;22.23;;;21.10;99.90;;;;;;4900316;29;20056;-79
2023/10/10 11:35:22;;;;;;;31.23;21.02;;;21.10;99.90;;;;;;4919241;29;20090;-82
2023/10/10 11:38:05;;;;;;;32.25;21.08;;;21.00;99.90;;;;;;4918691;29;20407;-83
2023/10/10 11:40:32;;;;;;;33.40;21.52;;;21.00;99.90;;;;;;4919112;29;20071;-83
2023/10/10 11:43:05;;;;;;;32.10;21.65;;;21.10;99.90;;;;;;4918637;29;20464;-83
2023/10/10 11:45:50;;;;;;;34.33;19.92;;;21.20;99.90;;;;;;4921175;29;20439;-83
2023/10/10 11:48:28;;;;;;;32.53;21.67;;;21.40;99.90;;;;;;4955436;29;20051;-83
2023/10/10 11:51:06;;;;;;;32.80;20.92;;;21.20;99.90;;;;;;4954020;29;20079;-83
2023/10/10 11:53:46;;;;;;;34.53;21.00;;;21.40;99.90;;;;;;4937905;29;20055;-83
2023/10/10 11:58:52;;;;;;;29.98;20.40;;;21.40;99.90;;;;;;4955808;23;20150;-86
2023/10/10 12:04:31;;;;;;;33.50;20.27;;;21.60;99.90;;;;;;4930648;29;20055;-84
2023/10/10 12:07:00;;;;;;;35.38;20.80;;;21.80;99.90;;;;;;4916057;29;20054;-84
2023/10/10 12:09:48;;;;;;;29.38;19.98;;;22.00;99.90;;;;;;4914112;29;20047;-83
2023/10/10 12:12:26;;;;;;;31.75;18.98;;;22.00;99.90;;;;;;4915358;29;20411;-82
2023/10/10 12:14:52;;;;;;;28.88;18.67;;;22.30;99.90;;;;;;4915498;29;20392;-83
2023/10/10 12:17:20;;;;;;;29.02;19.58;;;22.30;99.90;;;;;;4915639;29;20461;-84
2023/10/10 12:19:49;;;;;;;34.65;20.42;;;22.30;99.90;;;;;;4914730;29;20043;-83
2023/10/10 12:22:31;;;;;;;28.83;19.33;;;22.20;99.90;;;;;;4916462;29;20048;-83
2023/10/10 12:28:48;;;;;;;29.88;18.90;;;22.20;99.90;;;;;;4833611;29;20125;-84
2023/10/10 12:31:17;;;;;;;29.90;19.95;;;22.30;99.90;;;;;;4834921;29;20054;-86
2023/10/10 12:33:54;;;;;;;26.42;17.75;;;22.30;99.90;;;;;;4905351;23;20092;-85
2023/10/10 12:36:23;;;;;;;26.40;17.40;;;22.00;99.90;;;;;;4918055;29;20079;-84
2023/10/10 12:38:48;;;;;;;29.85;18.08;;;22.00;99.90;;;;;;4918413;29;20047;-85
2023/10/10 12:41:20;;;;;;;27.05;18.05;;;21.90;99.90;;;;;;4917362;29;20046;-79
2023/10/10 12:43:46;;;;;;;26.05;17.27;;;21.90;99.90;;;;;;4935482;29;20111;-80
2023/10/10 12:46:16;;;;;;;24.77;17.15;;;21.80;99.90;;;;;;4917705;29;20135;-84
2023/10/10 12:48:46;;;;;;;27.30;16.77;;;21.80;99.90;;;;;;4918715;29;20065;-84
2023/10/10 12:51:13;;;;;;;26.05;16.13;;;22.10;99.90;;;;;;4918218;29;20062;-84
2023/10/10 12:53:39;;;;;;;26.70;16.10;;;22.20;99.90;;;;;;4917075;29;20047;-84
2023/10/10 12:56:26;;;;;;;27.88;16.30;;;22.10;99.90;;;;;;4918400;29;20050;-82
2023/10/10 12:58:52;;;;;;;25.58;15.85;;;22.10;99.90;;;;;;4934309;29;20078;-85
2023/10/10 13:01:36;;;;;;;25.33;16.10;;;22.10;99.90;;;;;;4917120;29;20047;-85
2023/10/10 13:04:36;;;;;;;26.23;16.08;;;21.90;99.90;;;;;;4915959;29;20044;-84
2023/10/10 13:10:19;;;;;;;23.48;15.68;;;21.50;99.90;;;;;;4883657;29;20043;-84
2023/10/10 13:12:56;;;;;;;25.20;15.48;;;21.30;99.90;;;;;;4907210;29;20060;-84
2023/10/10 13:15:46;;;;;;;25.92;16.02;;;20.70;99.90;;;;;;4931017;29;20036;-84
2023/10/10 13:18:25;;;;;;;23.52;15.63;;;21.00;99.90;;;;;;4919173;29;20059;-84
2023/10/10 13:20:51;;;;;;;29.13;15.52;;;20.90;99.90;;;;;;4920900;29;20040;-84
2023/10/10 13:23:20;;;;;;;22.25;14.68;;;20.90;99.90;;;;;;4922161;29;20043;-84
2023/10/10 13:25:49;;;;;;;24.02;15.35;;;21.00;99.90;;;;;;4921447;29;20067;-83
2023/10/10 13:28:20;;;;;;;24.25;15.70;;;21.00;99.90;;;;;;4920298;29;20480;-84
2023/10/10 13:30:46;;;;;;;26.15;15.57;;;21.00;99.90;;;;;;4920601;29;20047;-83
2023/10/10 13:33:16;;;;;;;25.92;16.17;;;20.90;99.90;;;;;;4921030;29;20052;-83
2023/10/10 13:35:43;;;;;;;23.38;15.45;;;20.90;99.90;;;;;;4920271;29;20127;-83
2023/10/10 13:38:10;;;;;;;24.20;15.40;;;20.80;99.90;;;;;;4920678;29;20059;-83
2023/10/10 13:40:48;;;;;;;28.00;15.68;;;20.80;99.90;;;;;;4921037;29;20048;-84
2023/10/10 13:43:18;;;;;;;26.85;15.38;;;21.00;99.90;;;;;;4935760;29;20123;-83
2023/10/10 13:45:48;;;;;;;25.90;15.75;;;20.80;99.90;;;;;;4921083;29;20443;-83
2023/10/10 13:48:15;;;;;;;24.70;14.98;;;21.00;99.90;;;;;;4918442;29;20055;-83
2023/10/10 13:50:56;;;;;;;24.30;14.27;;;20.80;99.90;;;;;;4937067;29;20047;-83
2023/10/10 13:53:27;;;;;;;22.75;13.25;;;20.80;99.90;;;;;;4919455;29;20044;-83
2023/10/10 13:55:53;;;;;;;22.42;13.27;;;20.80;99.90;;;;;;4920729;29;20511;-83
2023/10/10 13:58:19;;;;;;;22.10;13.38;;;20.90;99.90;;;;;;4920083;29;20051;-83
2023/10/10 14:00:55;;;;;;;21.67;12.93;;;21.00;99.90;;;;;;4920838;29;20473;-83
2023/10/10 14:03:35;;;;;;;20.65;12.80;;;20.60;99.90;;;;;;4926832;29;20051;-84
2023/10/10 14:06:12;;;;;;;19.25;11.82;;;21.00;99.90;;;;;;4921983;29;20501;-83
2023/10/10 14:08:50;;;;;;;20.55;12.38;;;21.10;99.90;;;;;;4919001;29;20411;-83
2023/10/10 14:11:32;;;;;;;21.17;12.55;;;21.00;99.90;;;;;;4917231;29;20064;-83
2023/10/10 14:13:59;;;;;;;19.98;12.48;;;21.10;99.90;;;;;;4918657;29;20043;-83
2023/10/10 14:16:40;;;;;;;22.55;12.93;;;20.90;99.90;;;;;;4920515;29;20093;-83
2023/10/10 14:19:15;;;;;;;21.88;13.57;;;20.80;99.90;;;;;;4918671;29;20051;-86
2023/10/10 14:21:41;;;;;;;25.98;12.18;;;20.70;99.90;;;;;;4918986;29;20451;-85
2023/10/10 14:24:12;;;;;;;21.10;12.57;;;20.70;99.90;;;;;;4920259;29;20516;-84
2023/10/10 14:26:43;;;;;;;20.50;12.15;;;20.70;99.90;;;;;;4943095;29;20086;-84
2023/10/10 14:29:19;;;;;;;19.55;11.93;;;20.70;99.90;;;;;;4916366;29;20087;-84
2023/10/10 14:32:32;;;;;;;19.88;12.40;;;20.60;99.90;;;;;;4943808;28;20040;-84
2023/10/10 14:35:39;;;;;;;18.80;12.02;;;20.60;99.90;;;;;;4912707;29;20127;-84
2023/10/10 14:38:16;;;;;;;21.73;11.43;;;20.50;99.90;;;;;;4898980;29;20488;-83
2023/10/10 14:40:47;;;;;;;17.65;11.05;;;20.50;99.90;;;;;;4917924;29;20051;-83
2023/10/10 14:43:16;;;;;;;19.73;11.85;;;20.60;99.90;;;;;;4918868;29;20043;-83
2023/10/10 14:45:49;;;;;;;21.15;11.07;;;20.60;99.90;;;;;;4920230;29;20130;-84
2023/10/10 14:48:24;;;;;;;20.55;11.82;;;20.70;99.90;;;;;;4917668;29;20155;-84
2023/10/10 14:50:52;;;;;;;18.45;11.38;;;20.70;99.90;;;;;;4920057;29;20052;-83
2023/10/10 14:53:51;;;;;;;20.35;11.45;;;20.70;99.90;;;;;;4919437;29;20044;-83
2023/10/10 14:56:33;;;;;;;21.63;11.50;;;20.70;99.90;;;;;;4941336;29;20048;-83
2023/10/10 14:59:00;;;;;;;20.45;11.57;;;20.70;99.90;;;;;;4941776;29;20051;-83
2023/10/10 15:01:34;;;;;;;17.15;10.75;;;20.70;99.90;;;;;;4918835;29;20381;-84
2023/10/10 15:04:02;;;;;;;22.58;11.90;;;20.70;99.90;;;;;;4918156;29;20043;-85
2023/10/10 15:06:29;;;;;;;21.38;11.23;;;20.50;99.90;;;;;;4919897;29;20090;-84
2023/10/10 15:08:55;;;;;;;23.85;11.23;;;20.50;99.90;;;;;;4919373;29;20046;-83
2023/10/10 15:11:21;;;;;;;21.23;10.73;;;20.40;99.90;;;;;;4919692;29;20051;-82
2023/10/10 15:13:49;;;;;;;18.80;11.00;;;20.30;99.90;;;;;;4920132;29;20078;-82
2023/10/10 15:16:23;;;;;;;18.98;10.38;;;20.40;99.90;;;;;;4919262;29;20122;-84
2023/10/10 15:18:54;;;;;;;18.42;10.50;;;20.30;99.90;;;;;;4919624;29;20134;-85
2023/10/10 15:21:20;;;;;;;19.73;10.90;;;20.20;99.90;;;;;;4920906;29;20055;-85
2023/10/10 15:23:46;;;;;;;17.02;10.30;;;20.20;99.90;;;;;;4919097;29;20114;-84
2023/10/10 15:26:34;;;;;;;18.00;10.57;;;20.20;99.90;;;;;;4919710;29;20051;-85
2023/10/10 15:29:00;;;;;;;19.95;10.75;;;20.10;99.90;;;;;;4918927;29;20048;-85
2023/10/10 15:31:30;;;;;;;19.98;10.48;;;20.10;99.90;;;;;;4919658;29;20062;-84
2023/10/10 15:33:57;;;;;;;17.33;9.85;;;20.00;99.90;;;;;;4934881;29;20624;-80
2023/10/10 15:36:23;;;;;;;16.35;9.70;;;19.90;99.90;;;;;;4918485;29;20176;-84
2023/10/10 15:38:49;;;;;;;20.77;10.20;;;19.80;99.90;;;;;;4919985;29;20504;-84
2023/10/10 15:41:16;;;;;;;17.05;10.07;;;19.80;99.90;;;;;;4918668;29;20067;-85
2023/10/10 15:43:49;;;;;;;17.25;10.45;;;19.80;99.90;;;;;;4916850;29;20456;-84
2023/10/10 15:46:36;;;;;;;20.40;10.83;;;19.80;99.90;;;;;;4918365;29;20039;-85
2023/10/10 15:49:08;;;;;;;17.45;10.52;;;19.70;99.90;;;;;;4916856;29;20287;-85
2023/10/10 15:51:37;;;;;;;16.77;9.93;;;19.70;99.90;;;;;;4918759;29;20416;-84
2023/10/10 15:54:05;;;;;;;18.70;10.43;;;19.60;99.90;;;;;;4918785;29;20072;-84
2023/10/10 15:56:31;;;;;;;22.15;10.25;;;19.60;99.90;;;;;;4917115;29;20055;-84
2023/10/10 15:58:56;;;;;;;17.92;9.85;;;19.90;99.90;;;;;;4918367;29;20107;-85
2023/10/10 16:01:31;;;;;;;18.77;10.10;;;19.50;99.90;;;;;;4918485;29;20054;-84
2023/10/10 16:04:17;;;;;;;18.50;9.63;;;19.40;99.90;;;;;;4915413;29;20031;-84
2023/10/10 16:06:50;;;;;;;18.38;10.55;;;19.40;99.90;;;;;;4943466;29;20051;-85
2023/10/10 16:09:29;;;;;;;20.10;10.55;;;19.30;99.90;;;;;;4916111;29;20039;-85
2023/10/10 16:11:56;;;;;;;19.02;10.00;;;19.20;99.90;;;;;;4947814;28;20050;-84